createdAt,value
2018-12-16T00:00:42.344Z,64.52
2018-12-16T00:01:42.358Z,64.42
2018-12-16T00:02:42.373Z,64.68
2018-12-16T00:03:42.382Z,65.09
2018-12-16T00:04:49.509Z,64.42
2018-12-16T00:05:42.422Z,64.14
2018-12-16T00:06:42.401Z,64.14
2018-12-16T00:07:42.417Z,64.33
2018-12-16T00:08:42.424Z,63.85
2018-12-16T00:09:42.439Z,64.23
2018-12-16T00:10:42.455Z,64.04
2018-12-16T00:11:42.465Z,64.52
2018-12-16T00:12:42.468Z,64.23
2018-12-16T00:13:42.492Z,64.33
2018-12-16T00:14:42.486Z,64.33
2018-12-16T00:15:42.492Z,64.52
2018-12-16T00:16:42.637Z,64.14
2018-12-16T00:17:42.520Z,64.14
2018-12-16T00:18:42.557Z,64.61
2018-12-16T00:19:42.549Z,64.23
2018-12-16T00:20:42.548Z,64.14
2018-12-16T00:21:42.559Z,64.52
2018-12-16T00:22:42.571Z,64.23
2018-12-16T00:23:42.575Z,64.14
2018-12-16T00:24:42.592Z,64.23
2018-12-16T00:25:42.606Z,64.52
2018-12-16T00:26:42.621Z,64.33
2018-12-16T00:27:42.625Z,64.14
2018-12-16T00:28:42.637Z,64.61
2018-12-16T00:29:42.640Z,64.81
2018-12-16T00:30:42.676Z,64.42
2018-12-16T00:31:42.665Z,64.90
2018-12-16T00:32:42.675Z,64.81
2018-12-16T00:33:42.720Z,65.00
2018-12-16T00:34:42.699Z,64.04
2018-12-16T00:35:42.706Z,64.33
2018-12-16T00:36:42.729Z,64.04
2018-12-16T00:37:42.731Z,64.52
2018-12-16T00:38:42.759Z,65.00
2018-12-16T00:39:42.755Z,64.42
2018-12-16T00:40:42.762Z,64.42
2018-12-16T00:41:42.767Z,64.42
2018-12-16T00:42:42.783Z,64.90
2018-12-16T00:43:42.787Z,64.33
2018-12-16T00:44:42.811Z,65.00
2018-12-16T00:45:42.830Z,65.37
2018-12-16T00:46:42.841Z,65.09
2018-12-16T00:47:42.833Z,65.28
2018-12-16T00:48:42.849Z,65.25
2018-12-16T00:49:42.854Z,65.56
2018-12-16T00:50:42.928Z,65.37
2018-12-16T00:51:42.890Z,64.81
2018-12-16T00:52:42.897Z,64.52
2018-12-16T00:53:42.897Z,64.04
2018-12-16T00:54:42.929Z,64.81
2018-12-16T00:55:42.919Z,64.81
2018-12-16T00:56:42.932Z,64.81
2018-12-16T00:57:42.947Z,64.04
2018-12-16T00:58:42.951Z,64.42
2018-12-16T00:59:42.989Z,64.81
2018-12-16T01:00:42.971Z,64.81
2018-12-16T01:01:43.001Z,65.19
2018-12-16T01:02:43.001Z,64.81
2018-12-16T01:03:43.006Z,64.71
2018-12-16T01:04:43.027Z,64.90
2018-12-16T01:05:43.060Z,65.00
2018-12-16T01:06:43.039Z,65.09
2018-12-16T01:07:43.088Z,65.09
2018-12-16T01:08:43.136Z,65.00
2018-12-16T01:09:43.079Z,64.81
2018-12-16T01:10:43.081Z,65.00
2018-12-16T01:11:43.094Z,65.00
2018-12-16T01:12:43.107Z,64.81
2018-12-16T01:13:43.121Z,65.28
2018-12-16T01:14:43.122Z,65.00
2018-12-16T01:15:43.143Z,64.81
2018-12-16T01:16:43.157Z,65.00
2018-12-16T01:17:43.160Z,64.90
2018-12-16T01:18:43.173Z,64.81
2018-12-16T01:19:43.178Z,64.90
2018-12-16T01:20:43.191Z,64.81
2018-12-16T01:21:43.219Z,65.28
2018-12-16T01:22:43.794Z,64.42
2018-12-16T01:23:43.225Z,64.81
2018-12-16T01:24:43.246Z,65.00
2018-12-16T01:25:43.250Z,64.81
2018-12-16T01:26:43.259Z,65.00
2018-12-16T01:27:43.270Z,65.00
2018-12-16T01:28:43.289Z,64.90
2018-12-16T01:29:43.284Z,64.71
2018-12-16T01:30:43.305Z,65.28
2018-12-16T01:31:43.308Z,65.09
2018-12-16T01:32:43.316Z,64.71
2018-12-16T01:33:43.329Z,65.00
2018-12-16T01:34:43.350Z,65.09
2018-12-16T01:35:43.356Z,65.19
2018-12-16T01:36:43.367Z,65.37
2018-12-16T01:37:43.385Z,65.66
2018-12-16T01:38:43.387Z,65.28
2018-12-16T01:39:43.434Z,65.28
2018-12-16T01:40:43.407Z,65.56
2018-12-16T01:41:43.471Z,65.19
2018-12-16T01:42:43.425Z,64.90
2018-12-16T01:43:43.452Z,65.19
2018-12-16T01:44:43.450Z,65.19
2018-12-16T01:45:43.463Z,65.00
2018-12-16T01:46:43.475Z,64.81
2018-12-16T01:47:43.482Z,65.09
2018-12-16T01:48:43.496Z,64.90
2018-12-16T01:49:43.502Z,64.71
2018-12-16T01:50:43.517Z,64.90
2018-12-16T01:51:43.522Z,65.00
2018-12-16T01:52:49.981Z,64.90
2018-12-16T01:53:43.548Z,64.04
2018-12-16T01:54:43.559Z,65.09
2018-12-16T01:55:43.572Z,64.81
2018-12-16T01:56:43.609Z,65.09
2018-12-16T01:57:43.591Z,64.90
2018-12-16T01:58:43.596Z,65.19
2018-12-16T01:59:43.615Z,65.09
2018-12-16T02:00:43.626Z,65.00
2018-12-16T02:01:43.636Z,64.81
2018-12-16T02:02:43.643Z,65.00
2018-12-16T02:03:43.654Z,64.23
2018-12-16T02:04:43.667Z,65.00
2018-12-16T02:05:43.687Z,65.09
2018-12-16T02:06:43.696Z,64.33
2018-12-16T02:07:43.707Z,65.00
2018-12-16T02:08:43.719Z,65.00
2018-12-16T02:09:43.720Z,64.90
2018-12-16T02:10:43.740Z,64.81
2018-12-16T02:11:43.742Z,64.14
2018-12-16T02:12:43.750Z,65.09
2018-12-16T02:13:43.803Z,64.90
2018-12-16T02:14:43.773Z,65.19
2018-12-16T02:15:43.781Z,65.28
2018-12-16T02:16:43.797Z,65.00
2018-12-16T02:17:43.811Z,65.00
2018-12-16T02:18:43.820Z,64.42
2018-12-16T02:19:43.823Z,64.23
2018-12-16T02:20:43.836Z,64.42
2018-12-16T02:21:43.853Z,64.52
2018-12-16T02:22:43.862Z,64.81
2018-12-16T02:23:43.874Z,64.81
2018-12-16T02:24:43.880Z,64.90
2018-12-16T02:25:43.892Z,64.33
2018-12-16T02:26:43.899Z,65.19
2018-12-16T02:27:43.927Z,64.90
2018-12-16T02:28:43.928Z,64.81
2018-12-16T02:29:43.931Z,64.81
2018-12-16T02:30:43.966Z,65.00
2018-12-16T02:31:43.957Z,64.23
2018-12-16T02:32:43.966Z,64.33
2018-12-16T02:33:43.979Z,64.52
2018-12-16T02:34:43.997Z,64.23
2018-12-16T02:35:44.010Z,64.14
2018-12-16T02:36:44.017Z,64.61
2018-12-16T02:37:44.018Z,64.04
2018-12-16T02:38:44.048Z,64.42
2018-12-16T02:39:44.037Z,64.71
2018-12-16T02:40:44.050Z,65.00
2018-12-16T02:41:44.065Z,65.00
2018-12-16T02:42:44.077Z,64.81
2018-12-16T02:43:44.089Z,64.90
2018-12-16T02:44:44.094Z,65.19
2018-12-16T02:45:44.107Z,65.00
2018-12-16T02:46:44.116Z,64.23
2018-12-16T02:47:44.208Z,64.14
2018-12-16T02:48:44.138Z,64.23
2018-12-16T02:49:44.164Z,65.19
2018-12-16T02:50:44.189Z,64.71
2018-12-16T02:51:44.174Z,65.28
2018-12-16T02:52:44.196Z,64.81
2018-12-16T02:53:44.201Z,65.00
2018-12-16T02:54:44.220Z,64.42
2018-12-16T02:55:44.218Z,64.81
2018-12-16T02:56:44.231Z,64.71
2018-12-16T02:57:44.245Z,64.52
2018-12-16T02:58:44.262Z,65.00
2018-12-16T02:59:44.257Z,64.42
2018-12-16T03:00:44.283Z,64.90
2018-12-16T03:01:44.280Z,64.61
2018-12-16T03:02:44.288Z,65.09
2018-12-16T03:03:44.316Z,65.09
2018-12-16T03:04:44.341Z,65.28
2018-12-16T03:05:44.345Z,65.09
2018-12-16T03:06:44.338Z,65.37
2018-12-16T03:07:44.346Z,65.47
2018-12-16T03:08:44.354Z,66.03
2018-12-16T03:09:44.380Z,66.03
2018-12-16T03:10:44.386Z,65.75
2018-12-16T03:11:44.388Z,66.13
2018-12-16T03:12:44.414Z,66.51
2018-12-16T03:13:44.409Z,66.70
2018-12-16T03:14:44.430Z,67.46
2018-12-16T03:15:44.426Z,67.18
2018-12-16T03:16:44.457Z,67.93
2018-12-16T03:17:44.451Z,68.69
2018-12-16T03:18:44.470Z,68.88
2018-12-16T03:19:44.479Z,69.17
2018-12-16T03:20:44.488Z,69.45
2018-12-16T03:21:44.495Z,69.35
2018-12-16T03:22:44.515Z,69.73
2018-12-16T03:23:44.515Z,69.64
2018-12-16T03:24:44.532Z,69.64
2018-12-16T03:25:44.534Z,69.73
2018-12-16T03:26:44.552Z,70.58
2018-12-16T03:27:44.568Z,71.02
2018-12-16T03:28:44.574Z,71.81
2018-12-16T03:29:44.577Z,72.19
2018-12-16T03:30:44.584Z,72.48
2018-12-16T03:31:44.598Z,72.77
2018-12-16T03:32:44.604Z,73.05
2018-12-16T03:33:44.622Z,72.67
2018-12-16T03:34:44.643Z,73.14
2018-12-16T03:35:44.651Z,73.61
2018-12-16T03:36:44.659Z,73.14
2018-12-16T03:37:44.662Z,74.28
2018-12-16T03:38:44.760Z,74.90
2018-12-16T03:39:44.680Z,74.81
2018-12-16T03:40:44.686Z,76.23
2018-12-16T03:41:44.702Z,76.23
2018-12-16T03:42:44.708Z,76.08
2018-12-16T03:43:44.720Z,76.65
2018-12-16T03:44:44.735Z,76.55
2018-12-16T03:45:44.740Z,76.74
2018-12-16T03:46:44.765Z,76.08
2018-12-16T03:47:44.777Z,76.65
2018-12-16T03:48:44.772Z,76.74
2018-12-16T03:49:44.788Z,77.50
2018-12-16T03:50:44.803Z,77.56
2018-12-16T03:51:44.805Z,78.07
2018-12-16T03:52:44.814Z,78.03
2018-12-16T03:53:44.852Z,78.45
2018-12-16T03:54:44.842Z,78.26
2018-12-16T03:55:44.886Z,78.59
2018-12-16T03:56:44.869Z,78.98
2018-12-16T03:57:45.011Z,78.92
2018-12-16T03:58:44.898Z,78.59
2018-12-16T03:59:44.960Z,79.36
2018-12-16T04:00:44.925Z,78.83
2018-12-16T04:01:44.907Z,78.73
2018-12-16T04:02:44.923Z,78.92
2018-12-16T04:03:44.933Z,78.98
2018-12-16T04:04:44.943Z,79.26
2018-12-16T04:05:44.966Z,79.64
2018-12-16T04:06:44.969Z,80.02
2018-12-16T04:07:44.988Z,80.30
2018-12-16T04:08:44.983Z,80.11
2018-12-16T04:09:44.994Z,79.87
2018-12-16T04:10:45.067Z,80.15
2018-12-16T04:11:45.022Z,79.87
2018-12-16T04:12:45.099Z,80.06
2018-12-16T04:13:45.029Z,80.06
2018-12-16T04:14:45.042Z,80.25
2018-12-16T04:15:45.069Z,79.68
2018-12-16T04:16:45.102Z,79.39
2018-12-16T04:17:45.082Z,79.77
2018-12-16T04:18:45.104Z,80.06
2018-12-16T04:19:45.094Z,80.82
2018-12-16T04:20:45.100Z,80.34
2018-12-16T04:21:45.121Z,81.06
2018-12-16T04:22:45.125Z,81.15
2018-12-16T04:23:45.140Z,81.01
2018-12-16T04:24:45.146Z,81.20
2018-12-16T04:25:45.162Z,80.72
2018-12-16T04:26:45.191Z,80.25
2018-12-16T04:27:45.223Z,80.06
2018-12-16T04:28:45.275Z,80.15
2018-12-16T04:29:45.207Z,80.82
2018-12-16T04:30:45.213Z,81.34
2018-12-16T04:31:45.225Z,81.15
2018-12-16T04:32:45.228Z,82.29
2018-12-16T04:33:45.247Z,81.82
2018-12-16T04:34:45.243Z,81.92
2018-12-16T04:35:45.259Z,81.67
2018-12-16T04:36:45.268Z,82.01
2018-12-16T04:38:45.322Z,82.62
2018-12-16T04:39:45.300Z,82.14
2018-12-16T04:40:45.318Z,82.05
2018-12-16T04:41:45.320Z,82.29
2018-12-16T04:42:45.325Z,83.00
2018-12-16T04:43:45.594Z,82.71
2018-12-16T04:44:45.353Z,82.71
2018-12-16T04:45:45.357Z,82.71
2018-12-16T04:46:45.377Z,82.90
2018-12-16T04:47:45.387Z,82.81
2018-12-16T04:48:45.395Z,82.62
2018-12-16T04:49:45.399Z,83.24
2018-12-16T04:50:45.506Z,82.71
2018-12-16T04:51:45.461Z,83.09
2018-12-16T04:52:45.444Z,82.90
2018-12-16T04:53:45.454Z,82.33
2018-12-16T04:54:45.462Z,82.62
2018-12-16T04:55:45.481Z,83.09
2018-12-16T04:56:45.471Z,82.62
2018-12-16T04:57:45.575Z,83.37
2018-12-16T04:58:45.501Z,83.85
2018-12-16T04:59:45.522Z,83.09
2018-12-16T05:00:45.511Z,83.37
2018-12-16T05:01:45.560Z,83.52
2018-12-16T05:02:45.558Z,83.85
2018-12-16T05:03:45.568Z,83.47
2018-12-16T05:04:45.625Z,84.32
2018-12-16T05:05:45.606Z,84.66
2018-12-16T05:06:45.587Z,84.23
2018-12-16T05:07:45.624Z,84.23
2018-12-16T05:08:45.594Z,84.66
2018-12-16T05:09:45.608Z,84.80
2018-12-16T05:10:45.621Z,84.13
2018-12-16T05:11:45.880Z,84.32
2018-12-16T05:12:45.645Z,84.42
2018-12-16T05:13:45.656Z,84.23
2018-12-16T05:14:45.668Z,83.66
2018-12-16T05:15:45.671Z,83.75
2018-12-16T05:16:45.681Z,84.99
2018-12-16T05:17:45.702Z,84.80
2018-12-16T05:18:45.703Z,84.42
2018-12-16T05:19:45.705Z,84.23
2018-12-16T05:20:45.737Z,85.23
2018-12-16T05:21:45.734Z,85.13
2018-12-16T05:22:45.746Z,85.23
2018-12-16T05:23:45.751Z,85.17
2018-12-16T05:24:45.842Z,84.70
2018-12-16T05:25:45.791Z,85.42
2018-12-16T05:26:45.807Z,85.51
2018-12-16T05:27:45.797Z,85.80
2018-12-16T05:28:45.803Z,85.23
2018-12-16T05:29:45.813Z,84.99
2018-12-16T05:30:45.829Z,84.61
2018-12-16T05:31:45.841Z,84.99
2018-12-16T05:32:45.853Z,84.56
2018-12-16T05:33:45.877Z,85.32
2018-12-16T05:34:45.881Z,85.42
2018-12-16T05:35:45.889Z,85.42
2018-12-16T05:36:45.905Z,85.70
2018-12-16T05:37:45.943Z,85.08
2018-12-16T05:38:45.916Z,84.80
2018-12-16T05:39:45.974Z,84.99
2018-12-16T05:40:45.928Z,84.51
2018-12-16T05:41:45.976Z,84.80
2018-12-16T05:42:45.949Z,84.94
2018-12-16T05:43:45.963Z,85.08
2018-12-16T05:44:45.972Z,85.04
2018-12-16T05:45:45.979Z,85.80
2018-12-16T05:46:45.986Z,85.42
2018-12-16T05:47:46.007Z,84.99
2018-12-16T05:48:46.008Z,84.80
2018-12-16T05:49:46.024Z,85.04
2018-12-16T05:50:46.036Z,84.80
2018-12-16T05:51:46.049Z,85.13
2018-12-16T05:52:46.050Z,85.13
2018-12-16T05:54:46.079Z,85.04
2018-12-16T05:55:46.097Z,85.61
2018-12-16T05:56:46.098Z,85.27
2018-12-16T05:57:46.109Z,85.27
2018-12-16T05:59:46.129Z,84.85
2018-12-16T06:00:46.336Z,85.32
2018-12-16T06:01:46.151Z,85.61
2018-12-16T06:02:46.305Z,85.70
2018-12-16T06:03:46.169Z,86.03
2018-12-16T06:04:46.193Z,85.36
2018-12-16T06:05:46.198Z,85.32
2018-12-16T06:06:46.201Z,85.17
2018-12-16T06:07:46.213Z,85.46
2018-12-16T06:08:46.226Z,85.08
2018-12-16T06:09:46.233Z,85.23
2018-12-16T06:10:46.260Z,84.42
2018-12-16T06:11:46.281Z,85.08
2018-12-16T06:12:46.273Z,84.61
2018-12-16T06:13:46.286Z,84.61
2018-12-16T06:14:46.295Z,84.51
2018-12-16T06:15:46.368Z,84.66
2018-12-16T06:16:46.306Z,84.99
2018-12-16T06:17:46.315Z,84.80
2018-12-16T06:18:46.324Z,84.51
2018-12-16T06:19:46.341Z,83.56
2018-12-16T06:20:46.354Z,84.23
2018-12-16T06:21:46.357Z,84.04
2018-12-16T06:22:46.381Z,84.13
2018-12-16T06:23:46.379Z,84.89
2018-12-16T06:24:46.395Z,84.99
2018-12-16T06:25:46.404Z,85.17
2018-12-16T06:26:46.413Z,84.89
2018-12-16T06:27:46.429Z,85.46
2018-12-16T06:28:46.432Z,85.42
2018-12-16T06:29:46.442Z,85.61
2018-12-16T06:30:46.485Z,85.51
2018-12-16T06:31:46.472Z,85.36
2018-12-16T06:32:46.476Z,85.70
2018-12-16T06:33:46.487Z,85.89
2018-12-16T06:34:46.498Z,85.70
2018-12-16T06:35:46.507Z,85.46
2018-12-16T06:36:46.517Z,85.65
2018-12-16T06:37:46.526Z,85.70
2018-12-16T06:38:46.540Z,85.89
2018-12-16T06:39:46.552Z,85.89
2018-12-16T06:40:46.562Z,85.89
2018-12-16T06:41:46.569Z,86.18
2018-12-16T06:42:46.580Z,86.93
2018-12-16T06:43:46.599Z,86.27
2018-12-16T06:44:46.598Z,86.03
2018-12-16T06:45:46.613Z,86.08
2018-12-16T06:46:46.620Z,86.46
2018-12-16T06:47:46.626Z,87.02
2018-12-16T06:48:46.641Z,87.50
2018-12-16T06:50:46.665Z,88.07
2018-12-16T06:51:46.670Z,88.64
2018-12-16T06:52:46.678Z,88.07
2018-12-16T06:53:46.692Z,87.12
2018-12-16T06:54:46.704Z,87.12
2018-12-16T06:55:46.717Z,86.93
2018-12-16T06:56:46.720Z,87.50
2018-12-16T06:57:46.746Z,88.12
2018-12-16T06:58:46.747Z,88.49
2018-12-16T06:59:46.754Z,88.92
2018-12-16T07:00:46.761Z,88.92
2018-12-16T07:01:46.777Z,87.78
2018-12-16T07:02:46.799Z,86.83
2018-12-16T07:03:46.798Z,86.55
2018-12-16T07:04:46.850Z,86.55
2018-12-16T07:05:46.822Z,86.46
2018-12-16T07:06:46.874Z,86.36
2018-12-16T07:07:46.834Z,85.99
2018-12-16T07:08:46.847Z,86.46
2018-12-16T07:10:46.868Z,85.89
2018-12-16T07:11:46.882Z,85.99
2018-12-16T07:12:46.912Z,86.18
2018-12-16T07:13:46.902Z,86.18
2018-12-16T07:14:46.923Z,87.02
2018-12-16T07:15:46.921Z,88.17
2018-12-16T07:16:46.930Z,88.78
2018-12-16T07:17:46.948Z,89.30
2018-12-16T07:18:46.953Z,89.87
2018-12-16T07:19:46.961Z,89.20
2018-12-16T07:20:47.006Z,89.01
2018-12-16T07:21:47.081Z,88.64
2018-12-16T07:22:47.243Z,89.01
2018-12-16T07:23:47.041Z,88.64
2018-12-16T07:24:47.017Z,89.68
2018-12-16T07:25:47.052Z,89.68
2018-12-16T07:26:47.048Z,89.01
2018-12-16T07:27:47.047Z,89.01
2018-12-16T07:28:47.089Z,89.58
2018-12-16T07:29:47.072Z,90.11
2018-12-16T07:30:47.073Z,90.44
2018-12-16T07:31:47.084Z,90.34
2018-12-16T07:32:47.125Z,90.15
2018-12-16T07:33:47.103Z,89.49
2018-12-16T07:34:47.122Z,89.11
2018-12-16T07:35:47.136Z,89.01
2018-12-16T07:36:47.143Z,89.68
2018-12-16T07:37:47.152Z,89.87
2018-12-16T07:38:47.251Z,89.68
2018-12-16T07:39:47.168Z,89.58
2018-12-16T07:40:47.178Z,89.87
2018-12-16T07:41:47.197Z,89.87
2018-12-16T07:42:47.204Z,89.49
2018-12-16T07:43:47.231Z,89.49
2018-12-16T07:44:47.230Z,90.06
2018-12-16T07:45:47.228Z,89.77
2018-12-16T07:46:47.252Z,90.44
2018-12-16T07:47:47.300Z,91.00
2018-12-16T07:48:47.262Z,90.81
2018-12-16T07:49:47.286Z,90.91
2018-12-16T07:50:47.284Z,90.91
2018-12-16T07:51:47.291Z,90.81
2018-12-16T07:52:47.301Z,90.72
2018-12-16T07:53:47.382Z,90.53
2018-12-16T07:54:47.332Z,91.00
2018-12-16T07:55:47.350Z,90.44
2018-12-16T07:56:47.351Z,89.96
2018-12-16T07:57:47.392Z,89.58
2018-12-16T07:58:47.376Z,88.92
2018-12-16T07:59:47.374Z,89.11
2018-12-16T08:00:47.392Z,89.20
2018-12-16T08:01:47.398Z,88.92
2018-12-16T08:02:47.415Z,89.39
2018-12-16T08:03:47.433Z,90.72
2018-12-16T08:04:47.441Z,91.38
2018-12-16T08:05:47.454Z,90.72
2018-12-16T08:06:47.453Z,91.19
2018-12-16T08:07:47.460Z,90.96
2018-12-16T08:08:47.480Z,91.57
2018-12-16T08:09:47.483Z,91.67
2018-12-16T08:10:47.493Z,90.44
2018-12-16T08:11:47.513Z,90.53
2018-12-16T08:12:47.552Z,90.25
2018-12-16T08:13:47.519Z,90.53
2018-12-16T08:14:47.554Z,90.53
2018-12-16T08:15:47.569Z,90.25
2018-12-16T08:16:47.554Z,90.86
2018-12-16T08:17:47.570Z,91.00
2018-12-16T08:18:47.573Z,91.19
2018-12-16T08:19:47.596Z,90.72
2018-12-16T08:20:47.592Z,90.81
2018-12-16T08:21:47.606Z,90.91
2018-12-16T08:22:47.616Z,91.29
2018-12-16T08:23:47.658Z,91.29
2018-12-16T08:24:47.660Z,90.91
2018-12-16T08:25:47.662Z,90.63
2018-12-16T08:26:47.655Z,90.06
2018-12-16T08:27:47.745Z,90.06
2018-12-16T08:28:47.684Z,90.15
2018-12-16T08:29:47.691Z,90.06
2018-12-16T08:30:47.710Z,90.25
2018-12-16T08:31:47.706Z,90.63
2018-12-16T08:32:47.726Z,91.00
2018-12-16T08:33:47.754Z,90.44
2018-12-16T08:34:47.743Z,90.15
2018-12-16T08:35:47.749Z,90.34
2018-12-16T08:36:47.767Z,91.48
2018-12-16T08:37:47.783Z,91.29
2018-12-16T08:38:47.797Z,91.48
2018-12-16T08:39:47.804Z,91.57
2018-12-16T08:40:47.801Z,91.38
2018-12-16T08:41:47.838Z,91.29
2018-12-16T08:42:47.828Z,90.63
2018-12-16T08:43:47.835Z,89.68
2018-12-16T08:44:47.866Z,90.91
2018-12-16T08:45:47.863Z,90.72
2018-12-16T08:46:47.998Z,90.91
2018-12-16T08:47:47.875Z,90.63
2018-12-16T08:48:47.903Z,91.00
2018-12-16T08:49:47.903Z,90.91
2018-12-16T08:51:47.922Z,90.25
2018-12-16T08:52:47.935Z,90.25
2018-12-16T08:53:47.943Z,90.06
2018-12-16T08:54:47.952Z,90.15
2018-12-16T08:55:47.983Z,90.25
2018-12-16T08:56:47.987Z,90.53
2018-12-16T08:57:47.985Z,90.81
2018-12-16T08:58:47.994Z,91.10
2018-12-16T08:59:48.003Z,91.86
2018-12-16T09:00:48.010Z,92.14
2018-12-16T09:01:48.101Z,91.29
2018-12-16T09:02:48.069Z,91.10
2018-12-16T09:03:48.044Z,90.34
2018-12-16T09:04:48.051Z,89.49
2018-12-16T09:05:48.063Z,90.15
2018-12-16T09:06:48.092Z,90.72
2018-12-16T09:07:48.088Z,90.53
2018-12-16T09:08:48.106Z,90.72
2018-12-16T09:09:48.108Z,90.34
2018-12-16T09:10:48.121Z,91.10
2018-12-16T09:11:48.126Z,91.48
2018-12-16T09:12:48.139Z,91.48
2018-12-16T09:13:48.151Z,91.29
2018-12-16T09:14:48.159Z,91.48
2018-12-16T09:15:48.169Z,91.00
2018-12-16T09:16:48.187Z,91.00
2018-12-16T09:17:48.218Z,90.53
2018-12-16T09:18:48.252Z,90.15
2018-12-16T09:19:48.217Z,90.53
2018-12-16T09:20:48.235Z,91.19
2018-12-16T09:21:48.250Z,91.10
2018-12-16T09:22:48.250Z,91.48
2018-12-16T09:23:48.263Z,91.29
2018-12-16T09:24:48.310Z,91.48
2018-12-16T09:25:48.287Z,91.10
2018-12-16T09:26:48.284Z,91.38
2018-12-16T09:27:48.301Z,91.38
2018-12-16T09:28:48.309Z,91.19
2018-12-16T09:29:48.317Z,91.29
2018-12-16T09:30:48.326Z,91.38
2018-12-16T09:31:48.341Z,91.10
2018-12-16T09:32:48.374Z,91.76
2018-12-16T09:33:48.360Z,91.38
2018-12-16T09:34:48.469Z,90.53
2018-12-16T09:35:48.486Z,91.10
2018-12-16T09:36:48.400Z,91.76
2018-12-16T09:37:48.403Z,92.24
2018-12-16T09:38:48.419Z,92.61
2018-12-16T09:39:48.419Z,92.71
2018-12-16T09:40:48.446Z,92.80
2018-12-16T09:41:48.492Z,92.05
2018-12-16T09:42:48.450Z,92.05
2018-12-16T09:43:48.470Z,92.24
2018-12-16T09:44:48.491Z,92.99
2018-12-16T09:45:49.576Z,92.71
2018-12-16T09:46:48.507Z,92.05
2018-12-16T09:47:48.537Z,92.90
2018-12-16T09:48:48.530Z,92.71
2018-12-16T09:49:48.527Z,92.28
2018-12-16T09:50:48.544Z,91.52
2018-12-16T09:51:49.689Z,91.86
2018-12-16T09:52:48.588Z,92.71
2018-12-16T09:53:48.570Z,93.18
2018-12-16T09:54:48.585Z,92.52
2018-12-16T09:55:48.589Z,93.27
2018-12-16T09:56:48.681Z,93.37
2018-12-16T09:57:48.613Z,92.80
2018-12-16T09:58:48.654Z,92.71
2018-12-16T09:59:48.641Z,93.18
2018-12-16T10:00:48.647Z,92.61
2018-12-16T10:01:48.660Z,92.61
2018-12-16T10:02:48.670Z,92.71
2018-12-16T10:03:48.678Z,92.90
2018-12-16T10:04:48.695Z,92.43
2018-12-16T10:05:48.700Z,92.05
2018-12-16T10:06:48.712Z,92.28
2018-12-16T10:07:48.720Z,91.95
2018-12-16T10:08:48.740Z,92.14
2018-12-16T10:09:48.787Z,92.14
2018-12-16T10:10:48.747Z,92.90
2018-12-16T10:11:48.781Z,92.99
2018-12-16T10:12:48.785Z,92.05
2018-12-16T10:13:48.787Z,92.80
2018-12-16T10:14:48.795Z,92.71
2018-12-16T10:15:48.848Z,92.85
2018-12-16T10:16:48.822Z,92.76
2018-12-16T10:17:48.837Z,92.28
2018-12-16T10:18:48.899Z,93.27
2018-12-16T10:19:48.850Z,93.37
2018-12-16T10:20:48.868Z,94.23
2018-12-16T10:21:48.872Z,93.94
2018-12-16T10:22:48.875Z,93.13
2018-12-16T10:23:48.888Z,92.76
2018-12-16T10:24:51.460Z,92.76
2018-12-16T10:25:48.918Z,92.66
2018-12-16T10:26:49.059Z,92.66
2018-12-16T10:27:48.940Z,92.85
2018-12-16T10:28:48.963Z,92.09
2018-12-16T10:29:48.970Z,92.28
2018-12-16T10:30:49.998Z,92.47
2018-12-16T10:31:48.978Z,93.04
2018-12-16T10:32:48.994Z,93.04
2018-12-16T10:33:48.995Z,93.23
2018-12-16T10:34:49.014Z,93.23
2018-12-16T10:35:49.021Z,93.13
2018-12-16T10:36:49.037Z,93.04
2018-12-16T10:37:49.055Z,93.04
2018-12-16T10:38:49.064Z,93.51
2018-12-16T10:39:49.088Z,93.99
2018-12-16T10:40:49.075Z,93.94
2018-12-16T10:41:49.085Z,94.84
2018-12-16T10:42:49.101Z,94.37
2018-12-16T10:43:49.222Z,93.99
2018-12-16T10:44:49.117Z,94.18
2018-12-16T10:45:49.126Z,94.18
2018-12-16T10:46:49.167Z,94.27
2018-12-16T10:47:49.164Z,94.18
2018-12-16T10:48:49.164Z,93.80
2018-12-16T10:49:49.180Z,94.18
2018-12-16T10:50:49.199Z,93.89
2018-12-16T10:51:49.211Z,93.99
2018-12-16T10:52:49.206Z,93.80
2018-12-16T10:53:49.217Z,94.18
2018-12-16T10:54:49.233Z,93.99
2018-12-16T10:55:49.231Z,93.99
2018-12-16T10:56:49.246Z,93.42
2018-12-16T10:57:49.260Z,93.80
2018-12-16T10:58:49.295Z,93.99
2018-12-16T10:59:49.276Z,93.51
2018-12-16T11:00:49.433Z,93.99
2018-12-16T11:01:49.305Z,95.22
2018-12-16T11:02:49.314Z,95.31
2018-12-16T11:03:49.346Z,95.12
2018-12-16T11:04:49.339Z,95.22
2018-12-16T11:05:49.348Z,94.46
2018-12-16T11:06:49.366Z,94.74
2018-12-16T11:07:49.371Z,94.37
2018-12-16T11:08:49.379Z,95.31
2018-12-16T11:09:49.393Z,95.31
2018-12-16T11:10:49.400Z,95.22
2018-12-16T11:11:49.417Z,95.22
2018-12-16T11:12:49.431Z,95.88
2018-12-16T11:13:49.467Z,96.26
2018-12-16T11:14:49.481Z,96.45
2018-12-16T11:15:49.473Z,96.55
2018-12-16T11:16:49.480Z,96.55
2018-12-16T11:18:49.500Z,96.45
2018-12-16T11:19:49.504Z,96.07
2018-12-16T11:20:49.515Z,96.17
2018-12-16T11:21:49.580Z,96.36
2018-12-16T11:22:49.534Z,96.36
2018-12-16T11:23:53.818Z,96.36
2018-12-16T11:24:49.558Z,96.36
2018-12-16T11:25:49.559Z,96.45
2018-12-16T11:26:49.581Z,96.17
2018-12-16T11:27:49.600Z,95.88
2018-12-16T11:28:49.607Z,95.69
2018-12-16T11:29:49.613Z,96.26
2018-12-16T11:30:49.686Z,96.45
2018-12-16T11:31:49.626Z,96.64
2018-12-16T11:32:49.642Z,96.64
2018-12-16T11:33:49.659Z,96.36
2018-12-16T11:34:49.680Z,96.92
2018-12-16T11:35:49.672Z,96.45
2018-12-16T11:36:49.682Z,97.40
2018-12-16T11:37:49.695Z,97.97
2018-12-16T11:38:49.730Z,97.68
2018-12-16T11:39:49.739Z,97.40
2018-12-16T11:40:49.727Z,96.64
2018-12-16T11:41:49.742Z,96.64
2018-12-16T11:42:49.761Z,97.11
2018-12-16T11:43:49.761Z,97.21
2018-12-16T11:44:49.771Z,97.11
2018-12-16T11:45:49.838Z,97.11
2018-12-16T11:46:49.808Z,97.59
2018-12-16T11:47:49.801Z,97.78
2018-12-16T11:48:49.814Z,97.59
2018-12-16T11:49:49.947Z,97.30
2018-12-16T11:50:49.837Z,97.21
2018-12-16T11:51:49.958Z,97.21
2018-12-16T11:52:49.863Z,97.78
2018-12-16T11:53:49.870Z,97.02
2018-12-16T11:54:49.891Z,96.92
2018-12-16T11:55:49.928Z,97.30
2018-12-16T11:56:49.923Z,97.59
2018-12-16T11:57:49.914Z,97.78
2018-12-16T11:58:49.963Z,97.87
2018-12-16T11:59:49.942Z,97.49
2018-12-16T12:00:49.956Z,97.68
2018-12-16T12:01:49.966Z,97.59
2018-12-16T12:02:49.976Z,97.21
2018-12-16T12:03:49.979Z,97.59
2018-12-16T12:04:49.997Z,97.07
2018-12-16T12:05:50.020Z,96.69
2018-12-16T12:06:50.027Z,96.12
2018-12-16T12:07:50.025Z,96.50
2018-12-16T12:08:50.056Z,96.69
2018-12-16T12:09:50.056Z,96.78
2018-12-16T12:10:50.084Z,96.78
2018-12-16T12:11:50.087Z,96.59
2018-12-16T12:12:50.136Z,96.69
2018-12-16T12:13:50.101Z,96.50
2018-12-16T12:14:50.130Z,96.69
2018-12-16T12:15:50.117Z,97.16
2018-12-16T12:16:50.156Z,97.45
2018-12-16T12:17:50.163Z,96.50
2018-12-16T12:18:50.155Z,96.50
2018-12-16T12:19:50.178Z,96.50
2018-12-16T12:20:50.195Z,96.78
2018-12-16T12:21:50.189Z,96.22
2018-12-16T12:22:50.204Z,96.78
2018-12-16T12:23:50.227Z,97.35
2018-12-16T12:24:50.257Z,97.26
2018-12-16T12:25:50.233Z,97.92
2018-12-16T12:26:50.269Z,96.50
2018-12-16T12:27:50.277Z,96.03
2018-12-16T12:28:50.277Z,96.78
2018-12-16T12:29:50.315Z,97.35
2018-12-16T12:30:50.307Z,96.50
2018-12-16T12:31:50.311Z,96.97
2018-12-16T12:32:50.356Z,96.97
2018-12-16T12:33:50.345Z,97.07
2018-12-16T12:34:50.343Z,98.02
2018-12-16T12:35:50.362Z,97.73
2018-12-16T12:36:50.376Z,97.45
2018-12-16T12:37:50.382Z,97.64
2018-12-16T12:38:50.407Z,98.39
2018-12-16T12:39:50.413Z,98.02
2018-12-16T12:40:50.513Z,97.73
2018-12-16T12:41:50.421Z,98.30
2018-12-16T12:42:50.436Z,98.30
2018-12-16T12:43:50.450Z,97.16
2018-12-16T12:44:50.454Z,96.59
2018-12-16T12:45:50.475Z,97.45
2018-12-16T12:46:50.490Z,97.92
2018-12-16T12:47:50.493Z,97.92
2018-12-16T12:48:50.496Z,98.96
2018-12-16T12:50:50.517Z,98.68
2018-12-16T12:51:50.541Z,99.44
2018-12-16T12:52:50.552Z,98.68
2018-12-16T12:53:50.576Z,98.96
2018-12-16T12:54:50.583Z,98.58
2018-12-16T12:55:50.587Z,99.06
2018-12-16T12:56:50.598Z,99.34
2018-12-16T12:57:50.728Z,99.44
2018-12-16T12:58:50.621Z,98.96
2018-12-16T12:59:50.620Z,98.30
2018-12-16T13:00:50.641Z,98.68